CYET

Details ICAO CYET (YET)
Name EDSON
Region Canada
Timezone America/Edmonton (UTC-6.0)
Plans Departing 2
Arriving 4
Stats Elevation 3,041 ft / 927 m (AMSL)
Location 53.578932° -116.465045°
Runways 1
Magnetic Variation 15.503° E
Sunrise 2018-05-21 11:37:02 UTC / 2018-05-21 05:37:02 Local
Sunset 2018-05-22 03:50:46 UTC / 2018-05-21 21:50:46 Local
Advertisement - Login to hide

Runways

ID Width Length Bearing (true) Bearing (mag) Surface Threshold Offset Overrun Length
07 100 ft / 30 m 5,981 ft / 1,823 m 90.62° 75.12° Asphalt 600 ft / 183 m 0 ft / 0 m
25 100 ft / 30 m 5,981 ft / 1,823 m 270.64° 255.14° Asphalt 500 ft / 152 m 0 ft / 0 m

Map

Weather


0- 5 10 15 20 25 30 35+ Temperature / ° C

Clouds and Precipitation
Forecast for 2018-05-22 00:00 UTC. Updated 3 hours ago

Ground ~20,000 ft ~40,000 ft Winds

METAR

CYET 220200Z AUTO 05004KT 9SM BKN110 21/05 A2987 RMK SLP116 DENSITY ALT 4400FT

TAF

Not found

Frequencies

Unicom 123.20 MHz CTAF
Warning: Do not use this data for real-world aviation or navigation. No guarantee of current accuracy is given.